San Jose, Costa Rica
Current Conditions -  °F | °C
As of 6:00 PM on Thursday 18 Dec 2014 (Local Time) from MROC Reporting Station
Scattered Clouds Scattered Clouds  
Wind Chill: 22°   Ceiling: Unl
Heat Index: 22°   Visibility: 6mi
Dew Point: 18°   Wind: 6mph
Humidity: 78%   Direction: 240°WSW
Pressure: 30"   Gusts: NA
Location:  10°N, 84.22°W
Report Text: MROC 190000Z 24005KT 9999 FEW020 SCT030 22/18 A3000 NOSIG
Loading
Personal Weather Stations






























Interactive Weather Map New forecast layout! Learn more

10-Day Weather Forecast

Advertisements
Track Severe Weather on mobile